Time;durP1;ratioP1;P1;durP2;ratioP2;P2;SDS_P1;SDS_P2;PMS_P1;PMS_P2;Temp;Humidity;BMP_temperature;BMP_pressure;BME280_temperature;BME280_humidity;BME280_pressure;Samples;Min_cycle;Max_cycle;Signal;HPM_P1;HPM_P2
2022/07/21 00:01:01;;;;;;;17.83;3.72;;;;;;;;;;4932888;29;20078;-56
2022/07/21 00:03:28;;;;;;;18.45;3.30;;;;;;;;;;4934522;29;20039;-56
2022/07/21 00:05:55;;;;;;;20.13;3.75;;;;;;;;;;4935150;29;20027;-55
2022/07/21 00:08:22;;;;;;;18.30;4.05;;;;;;;;;;4935095;29;20035;-56
2022/07/21 00:10:49;;;;;;;19.08;4.32;;;;;;;;;;4934508;29;20027;-54
2022/07/21 00:13:16;;;;;;;25.15;3.72;;;;;;;;;;4932803;29;20031;-54
2022/07/21 00:15:43;;;;;;;25.80;4.00;;;;;;;;;;4934667;29;20267;-54
2022/07/21 00:18:11;;;;;;;19.05;4.10;;;;;;;;;;4935100;29;20490;-54
2022/07/21 00:20:38;;;;;;;26.02;4.47;;;;;;;;;;4934489;29;20587;-51
2022/07/21 00:23:04;;;;;;;17.65;3.90;;;;;;;;;;4934446;29;20054;-54
2022/07/21 00:25:32;;;;;;;21.25;3.90;;;;;;;;;;4932320;29;20598;-56
2022/07/21 00:27:59;;;;;;;17.65;4.00;;;;;;;;;;4934906;29;20054;-55
2022/07/21 00:30:26;;;;;;;24.02;3.55;;;;;;;;;;4935085;29;20030;-51
2022/07/21 00:32:53;;;;;;;15.93;3.78;;;;;;;;;;4934742;29;20036;-57
2022/07/21 00:35:20;;;;;;;16.73;3.65;;;;;;;;;;4933525;29;20090;-56
2022/07/21 00:37:47;;;;;;;19.23;3.88;;;;;;;;;;4933085;29;20023;-57
2022/07/21 00:40:15;;;;;;;16.42;3.92;;;;;;;;;;4934480;29;20036;-51
2022/07/21 00:42:43;;;;;;;14.65;4.00;;;;;;;;;;4934507;29;20122;-57
2022/07/21 00:45:10;;;;;;;14.52;3.60;;;;;;;;;;4933860;29;20027;-55
2022/07/21 00:47:38;;;;;;;18.70;3.95;;;;;;;;;;4933512;29;20676;-52
2022/07/21 00:50:07;;;;;;;18.83;3.80;;;;;;;;;;4932951;29;20396;-56
2022/07/21 00:52:34;;;;;;;17.23;3.50;;;;;;;;;;4934429;29;20091;-53
2022/07/21 00:55:02;;;;;;;17.42;3.55;;;;;;;;;;4934132;29;20030;-54
2022/07/21 00:57:29;;;;;;;21.05;3.88;;;;;;;;;;4934688;29;20484;-53
2022/07/21 00:59:56;;;;;;;20.23;3.78;;;;;;;;;;4932751;29;20173;-56
2022/07/21 01:02:23;;;;;;;14.50;3.55;;;;;;;;;;4933715;29;20120;-54
2022/07/21 01:04:50;;;;;;;17.77;3.75;;;;;;;;;;4934403;29;20410;-53
2022/07/21 01:07:19;;;;;;;16.98;3.38;;;;;;;;;;4934252;29;20028;-56
2022/07/21 01:09:46;;;;;;;16.05;3.72;;;;;;;;;;4934654;29;20039;-52
2022/07/21 01:12:13;;;;;;;12.80;3.28;;;;;;;;;;4932478;29;20043;-54
2022/07/21 01:14:40;;;;;;;10.65;3.50;;;;;;;;;;4933210;29;20058;-54
2022/07/21 01:17:07;;;;;;;17.60;4.00;;;;;;;;;;4934028;29;20368;-52
2022/07/21 01:19:34;;;;;;;11.43;3.10;;;;;;;;;;4934121;29;20032;-55
2022/07/21 01:22:02;;;;;;;20.70;3.67;;;;;;;;;;4935479;29;20379;-55
2022/07/21 01:24:29;;;;;;;17.73;3.53;;;;;;;;;;4935682;29;20035;-56
2022/07/21 01:26:56;;;;;;;14.95;3.47;;;;;;;;;;4937729;29;20035;-53
2022/07/21 01:29:23;;;;;;;15.20;3.85;;;;;;;;;;4938080;29;20506;-51
2022/07/21 01:31:50;;;;;;;18.38;3.78;;;;;;;;;;4938024;29;20024;-56
2022/07/21 01:34:20;;;;;;;18.55;3.33;;;;;;;;;;4937122;29;20043;-54
2022/07/21 01:36:47;;;;;;;15.57;3.90;;;;;;;;;;4935920;29;20039;-56
2022/07/21 01:41:59;;;;;;;11.95;3.90;;;;;;;;;;4938217;29;20524;-53
2022/07/21 01:44:26;;;;;;;17.40;3.17;;;;;;;;;;4937258;29;20027;-55
2022/07/21 01:46:53;;;;;;;15.65;2.97;;;;;;;;;;4937490;29;20051;-54
2022/07/21 01:49:21;;;;;;;13.98;3.13;;;;;;;;;;4934935;29;20028;-55
2022/07/21 01:51:48;;;;;;;12.98;3.72;;;;;;;;;;4937747;29;20505;-54
2022/07/21 01:54:16;;;;;;;13.07;3.70;;;;;;;;;;4937169;29;20114;-53
2022/07/21 01:56:43;;;;;;;16.13;3.33;;;;;;;;;;4937340;29;20059;-53
2022/07/21 01:59:10;;;;;;;10.90;2.90;;;;;;;;;;4937416;29;20024;-53
2022/07/21 02:01:37;;;;;;;13.25;3.50;;;;;;;;;;4934975;29;20110;-55
2022/07/21 02:04:05;;;;;;;9.88;3.40;;;;;;;;;;4937010;29;20043;-52
2022/07/21 02:06:33;;;;;;;18.70;3.75;;;;;;;;;;4937353;29;20030;-52
2022/07/21 02:09:00;;;;;;;13.05;3.50;;;;;;;;;;4936660;29;20028;-51
2022/07/21 02:11:27;;;;;;;11.52;3.05;;;;;;;;;;4936410;29;20517;-55
2022/07/21 02:13:54;;;;;;;12.07;3.75;;;;;;;;;;4935544;29;20046;-54
2022/07/21 02:16:21;;;;;;;13.55;3.20;;;;;;;;;;4937260;29;20040;-57
2022/07/21 02:18:48;;;;;;;13.95;3.35;;;;;;;;;;4936809;29;20032;-54
2022/07/21 02:21:15;;;;;;;11.35;3.28;;;;;;;;;;4936910;29;20083;-56
2022/07/21 02:23:42;;;;;;;12.60;3.17;;;;;;;;;;4936027;29;20143;-54
2022/07/21 02:26:09;;;;;;;12.15;3.22;;;;;;;;;;4934548;29;20028;-54
2022/07/21 02:28:36;;;;;;;16.77;3.20;;;;;;;;;;4936425;29;20027;-55
2022/07/21 02:31:03;;;;;;;11.07;3.38;;;;;;;;;;4937152;29;20030;-55
2022/07/21 02:33:30;;;;;;;13.05;3.42;;;;;;;;;;4935435;29;20074;-53
2022/07/21 02:35:57;;;;;;;14.05;3.15;;;;;;;;;;4935788;29;20180;-53
2022/07/21 02:38:26;;;;;;;14.45;3.50;;;;;;;;;;4934443;29;20079;-49
2022/07/21 02:40:53;;;;;;;11.93;2.90;;;;;;;;;;4937218;29;20038;-53
2022/07/21 02:43:20;;;;;;;18.95;3.45;;;;;;;;;;4936732;29;20024;-55
2022/07/21 02:45:47;;;;;;;10.13;2.92;;;;;;;;;;4936557;29;20052;-54
2022/07/21 02:48:14;;;;;;;12.57;3.38;;;;;;;;;;4934455;29;20024;-54
2022/07/21 02:50:42;;;;;;;10.82;3.67;;;;;;;;;;4936197;29;20079;-54
2022/07/21 02:53:11;;;;;;;11.30;2.97;;;;;;;;;;4936360;29;20086;-56
2022/07/21 02:55:38;;;;;;;8.48;3.00;;;;;;;;;;4936569;29;20031;-54
2022/07/21 02:58:14;;;;;;;14.93;3.58;;;;;;;;;;4936286;29;20040;-51
2022/07/21 03:01:14;;;;;;;15.38;3.33;;;;;;;;;;4934422;29;20363;-55
2022/07/21 03:03:41;;;;;;;12.30;3.10;;;;;;;;;;4904244;29;20410;-54
2022/07/21 03:06:08;;;;;;;14.55;3.95;;;;;;;;;;4936714;29;20031;-56
2022/07/21 03:08:35;;;;;;;12.35;3.80;;;;;;;;;;4936102;29;20046;-54
2022/07/21 03:11:03;;;;;;;12.52;3.25;;;;;;;;;;4935943;29;20044;-54
2022/07/21 03:13:30;;;;;;;11.68;3.28;;;;;;;;;;4934451;29;20104;-53
2022/07/21 03:15:57;;;;;;;17.50;3.63;;;;;;;;;;4936242;29;20024;-51
2022/07/21 03:18:24;;;;;;;13.02;3.55;;;;;;;;;;4935765;29;20449;-54
2022/07/21 03:20:51;;;;;;;16.75;3.45;;;;;;;;;;4936157;29;20509;-53
2022/07/21 03:23:17;;;;;;;9.82;2.92;;;;;;;;;;4934938;29;20086;-52
2022/07/21 03:25:44;;;;;;;9.65;3.05;;;;;;;;;;4934767;29;20051;-52
2022/07/21 03:28:11;;;;;;;12.20;3.60;;;;;;;;;;4937194;29;20020;-55
2022/07/21 03:30:38;;;;;;;8.77;3.38;;;;;;;;;;4937300;29;20024;-56
2022/07/21 03:33:06;;;;;;;16.80;4.30;;;;;;;;;;4936185;29;20043;-53
2022/07/21 03:35:33;;;;;;;16.83;4.22;;;;;;;;;;4934170;29;20024;-53
2022/07/21 03:38:00;;;;;;;12.02;3.60;;;;;;;;;;4934940;29;20040;-56
2022/07/21 03:40:29;;;;;;;11.60;3.42;;;;;;;;;;4935713;29;20032;-56
2022/07/21 03:42:57;;;;;;;12.43;3.90;;;;;;;;;;4936119;29;20023;-49
2022/07/21 03:45:24;;;;;;;10.45;3.63;;;;;;;;;;4935001;29;20506;-54
2022/07/21 03:47:52;;;;;;;15.45;3.75;;;;;;;;;;4934065;29;20398;-56
2022/07/21 03:50:19;;;;;;;13.98;4.13;;;;;;;;;;4933904;29;20138;-56
2022/07/21 03:52:46;;;;;;;13.27;3.83;;;;;;;;;;4935224;29;20130;-55
2022/07/21 03:55:20;;;;;;;14.20;3.95;;;;;;;;;;4935616;29;20028;-52
2022/07/21 03:57:48;;;;;;;11.07;3.78;;;;;;;;;;4935680;29;20035;-52
2022/07/21 04:00:23;;;;;;;15.75;4.13;;;;;;;;;;4933501;29;20035;-55
2022/07/21 04:02:50;;;;;;;13.70;3.78;;;;;;;;;;4935502;29;20063;-53
2022/07/21 04:05:18;;;;;;;15.55;3.95;;;;;;;;;;4935111;29;20035;-55
2022/07/21 04:07:46;;;;;;;15.27;4.35;;;;;;;;;;4935274;29;20042;-54
2022/07/21 04:10:14;;;;;;;16.23;4.32;;;;;;;;;;4935521;29;20036;-53
2022/07/21 04:12:41;;;;;;;13.57;4.20;;;;;;;;;;4932968;29;20482;-54
2022/07/21 04:15:09;;;;;;;12.30;4.10;;;;;;;;;;4934745;29;20090;-53
2022/07/21 04:17:37;;;;;;;13.45;3.80;;;;;;;;;;4935654;29;20027;-55
2022/07/21 04:20:04;;;;;;;16.75;4.07;;;;;;;;;;4934963;29;20051;-54
2022/07/21 04:22:31;;;;;;;20.10;4.32;;;;;;;;;;4934842;29;20127;-56
2022/07/21 04:24:59;;;;;;;11.52;4.53;;;;;;;;;;4932415;29;20027;-52
2022/07/21 04:27:26;;;;;;;13.15;4.25;;;;;;;;;;4935339;29;20074;-54
2022/07/21 04:29:54;;;;;;;17.73;4.63;;;;;;;;;;4935175;29;20035;-55
2022/07/21 04:32:21;;;;;;;14.50;3.88;;;;;;;;;;4934757;29;20102;-54
2022/07/21 04:34:48;;;;;;;19.27;4.43;;;;;;;;;;4933812;29;20027;-57
2022/07/21 04:37:15;;;;;;;18.90;4.88;;;;;;;;;;4933363;29;20043;-55
2022/07/21 04:39:42;;;;;;;16.42;4.35;;;;;;;;;;4934690;29;20094;-54
2022/07/21 04:42:09;;;;;;;16.45;4.22;;;;;;;;;;4934645;29;20059;-51
2022/07/21 04:44:36;;;;;;;15.32;4.63;;;;;;;;;;4935017;29;20104;-55
2022/07/21 04:47:03;;;;;;;16.55;5.10;;;;;;;;;;4933646;29;20056;-56
2022/07/21 04:49:29;;;;;;;20.45;4.95;;;;;;;;;;4933693;29;20032;-56
2022/07/21 04:51:56;;;;;;;14.55;4.30;;;;;;;;;;4934558;29;20557;-53
2022/07/21 04:54:23;;;;;;;17.10;4.90;;;;;;;;;;4935050;29;20497;-53
2022/07/21 04:56:50;;;;;;;16.23;5.00;;;;;;;;;;4936140;29;20032;-52
2022/07/21 04:59:17;;;;;;;20.92;4.50;;;;;;;;;;4937752;29;20090;-52
2022/07/21 05:01:44;;;;;;;16.88;5.00;;;;;;;;;;4937295;29;20035;-56
2022/07/21 05:04:11;;;;;;;14.13;4.60;;;;;;;;;;4938484;29;20482;-54
2022/07/21 05:06:38;;;;;;;20.05;5.28;;;;;;;;;;4938947;29;20058;-51
2022/07/21 05:09:05;;;;;;;20.50;4.90;;;;;;;;;;4938686;29;20087;-57
2022/07/21 05:11:32;;;;;;;15.23;4.32;;;;;;;;;;4936623;29;20189;-56
2022/07/21 05:13:59;;;;;;;19.48;5.47;;;;;;;;;;4937541;29;20048;-50
2022/07/21 05:16:26;;;;;;;16.02;4.85;;;;;;;;;;4938799;29;20083;-52
2022/07/21 05:18:53;;;;;;;18.80;5.22;;;;;;;;;;4938332;29;20034;-55
2022/07/21 05:21:20;;;;;;;16.73;5.10;;;;;;;;;;4938589;29;20471;-55
2022/07/21 05:23:47;;;;;;;16.90;5.63;;;;;;;;;;4936858;29;20438;-55
2022/07/21 05:26:14;;;;;;;23.13;5.22;;;;;;;;;;4937486;29;20027;-52
2022/07/21 05:28:42;;;;;;;15.27;4.97;;;;;;;;;;4938629;29;20095;-51
2022/07/21 05:31:09;;;;;;;16.17;4.72;;;;;;;;;;4938246;29;20035;-52
2022/07/21 05:33:36;;;;;;;19.20;5.25;;;;;;;;;;4937078;29;20047;-56
2022/07/21 05:36:04;;;;;;;16.30;5.25;;;;;;;;;;4936432;29;20423;-50
2022/07/21 05:38:31;;;;;;;18.00;6.03;;;;;;;;;;4937794;29;20040;-55
2022/07/21 05:41:02;;;;;;;21.13;5.70;;;;;;;;;;4938123;29;20023;-52
2022/07/21 05:43:30;;;;;;;17.67;5.63;;;;;;;;;;4937329;29;20039;-56
2022/07/21 05:45:58;;;;;;;18.98;5.47;;;;;;;;;;4937931;29;20111;-52
2022/07/21 05:48:25;;;;;;;22.33;5.72;;;;;;;;;;4935604;29;20497;-56
2022/07/21 05:50:52;;;;;;;21.35;5.82;;;;;;;;;;4937786;29;20035;-49
2022/07/21 05:53:19;;;;;;;22.45;6.03;;;;;;;;;;4936219;29;20118;-55
2022/07/21 05:55:46;;;;;;;15.43;5.38;;;;;;;;;;4937892;29;20024;-55
2022/07/21 05:58:14;;;;;;;16.35;5.47;;;;;;;;;;4937793;29;20082;-53
2022/07/21 06:00:41;;;;;;;17.48;5.70;;;;;;;;;;4935212;29;20486;-52
2022/07/21 06:03:08;;;;;;;27.77;5.80;;;;;;;;;;4937391;29;20577;-54
2022/07/21 06:05:35;;;;;;;17.60;5.18;;;;;;;;;;4937970;29;20019;-56
2022/07/21 06:08:02;;;;;;;18.10;5.25;;;;;;;;;;4937199;29;20455;-53
2022/07/21 06:10:29;;;;;;;22.73;5.47;;;;;;;;;;4935426;29;20028;-56
2022/07/21 06:12:56;;;;;;;15.35;6.10;;;;;;;;;;4935252;29;20039;-53
2022/07/21 06:15:23;;;;;;;20.38;5.20;;;;;;;;;;4937660;29;20501;-52
2022/07/21 06:17:50;;;;;;;21.73;5.63;;;;;;;;;;4936650;29;20032;-53
2022/07/21 06:20:17;;;;;;;19.45;5.47;;;;;;;;;;4937678;29;20031;-54
2022/07/21 06:22:44;;;;;;;20.63;6.20;;;;;;;;;;4936478;29;20044;-56
2022/07/21 06:25:11;;;;;;;14.15;5.40;;;;;;;;;;4935661;29;20102;-51
2022/07/21 06:27:38;;;;;;;19.52;5.68;;;;;;;;;;4937575;29;20032;-49
2022/07/21 06:30:06;;;;;;;15.88;4.43;;;;;;;;;;4936532;29;20028;-54
2022/07/21 06:32:33;;;;;;;18.10;5.55;;;;;;;;;;4936023;29;20513;-54
2022/07/21 06:35:00;;;;;;;15.23;4.55;;;;;;;;;;4935834;29;20083;-54
2022/07/21 06:37:27;;;;;;;16.90;5.95;;;;;;;;;;4935277;29;20080;-56
2022/07/21 06:39:54;;;;;;;17.80;5.53;;;;;;;;;;4936120;29;20047;-53
2022/07/21 06:42:21;;;;;;;19.15;5.30;;;;;;;;;;4937133;29;20040;-52
2022/07/21 06:44:48;;;;;;;13.10;5.15;;;;;;;;;;4936212;29;20447;-52
2022/07/21 06:47:14;;;;;;;15.95;4.90;;;;;;;;;;4935122;29;20055;-51
2022/07/21 06:49:41;;;;;;;16.40;5.60;;;;;;;;;;4935970;29;20099;-53
2022/07/21 06:52:08;;;;;;;21.13;5.03;;;;;;;;;;4936260;29;20496;-54
2022/07/21 06:54:35;;;;;;;18.33;5.50;;;;;;;;;;4936244;29;20099;-53
2022/07/21 06:57:02;;;;;;;20.35;4.80;;;;;;;;;;4936985;29;20071;-55
2022/07/21 06:59:29;;;;;;;14.90;5.30;;;;;;;;;;4935076;29;20032;-54
2022/07/21 07:01:58;;;;;;;13.80;5.07;;;;;;;;;;4935458;29;20061;-51
2022/07/21 07:04:26;;;;;;;16.20;5.32;;;;;;;;;;4935727;29;20040;-55
2022/07/21 07:06:55;;;;;;;10.77;5.00;;;;;;;;;;4936648;29;20533;-50
2022/07/21 07:09:22;;;;;;;19.60;5.05;;;;;;;;;;4936371;29;20830;-53
2022/07/21 07:11:52;;;;;;;15.50;5.03;;;;;;;;;;4933811;29;20483;-53
2022/07/21 07:14:20;;;;;;;12.57;5.15;;;;;;;;;;4936084;29;20047;-54
2022/07/21 07:16:47;;;;;;;18.50;5.00;;;;;;;;;;4936102;29;20032;-56
2022/07/21 07:19:14;;;;;;;14.80;4.68;;;;;;;;;;4937165;29;20394;-52
2022/07/21 07:21:41;;;;;;;11.50;4.60;;;;;;;;;;4937173;29;20475;-54
2022/07/21 07:24:08;;;;;;;13.50;5.05;;;;;;;;;;4933855;29;20066;-55
2022/07/21 07:26:35;;;;;;;15.13;5.05;;;;;;;;;;4935835;29;20027;-54
2022/07/21 07:29:02;;;;;;;9.60;4.63;;;;;;;;;;4935615;29;20501;-54
2022/07/21 07:31:29;;;;;;;16.02;5.03;;;;;;;;;;4935963;29;20071;-52
2022/07/21 07:33:59;;;;;;;12.77;5.00;;;;;;;;;;4936234;29;20122;-53
2022/07/21 07:36:26;;;;;;;15.48;4.88;;;;;;;;;;4933643;29;20046;-50
2022/07/21 07:38:54;;;;;;;10.77;4.55;;;;;;;;;;4935549;29;20039;-54
2022/07/21 07:41:22;;;;;;;8.63;4.00;;;;;;;;;;4935498;29;20032;-52
2022/07/21 07:43:51;;;;;;;15.30;4.55;;;;;;;;;;4935893;29;20510;-53
2022/07/21 07:46:19;;;;;;;11.38;4.63;;;;;;;;;;4934738;29;20138;-54
2022/07/21 07:48:47;;;;;;;12.68;4.30;;;;;;;;;;4933261;29;20080;-53
2022/07/21 07:51:15;;;;;;;13.00;4.65;;;;;;;;;;4935368;29;20028;-53
2022/07/21 07:53:42;;;;;;;10.85;4.30;;;;;;;;;;4935430;29;20475;-52
2022/07/21 07:56:09;;;;;;;12.68;4.40;;;;;;;;;;4935127;29;20028;-53
2022/07/21 07:58:36;;;;;;;10.18;4.00;;;;;;;;;;4935079;29;20059;-56
2022/07/21 08:01:05;;;;;;;8.82;3.95;;;;;;;;;;4933438;29;20820;-54
2022/07/21 08:03:32;;;;;;;8.50;4.10;;;;;;;;;;4935510;29;20086;-55
2022/07/21 08:06:03;;;;;;;10.15;3.90;;;;;;;;;;4934794;29;20055;-53
2022/07/21 08:08:30;;;;;;;7.95;3.58;;;;;;;;;;4934602;29;20094;-56
2022/07/21 08:10:57;;;;;;;10.35;4.40;;;;;;;;;;4934282;29;20024;-54
2022/07/21 08:13:24;;;;;;;8.68;3.70;;;;;;;;;;4933804;29;20046;-51
2022/07/21 08:15:51;;;;;;;11.50;4.05;;;;;;;;;;4935635;29;20390;-55
2022/07/21 08:18:19;;;;;;;7.57;3.30;;;;;;;;;;4934741;29;20131;-54
2022/07/21 08:20:47;;;;;;;9.85;3.80;;;;;;;;;;4935597;29;20042;-53
2022/07/21 08:23:15;;;;;;;8.27;3.80;;;;;;;;;;4933496;29;20576;-53
2022/07/21 08:25:42;;;;;;;9.60;3.80;;;;;;;;;;4934175;29;20439;-55
2022/07/21 08:28:10;;;;;;;9.20;3.67;;;;;;;;;;4934450;29;20387;-53
2022/07/21 08:30:37;;;;;;;9.27;3.65;;;;;;;;;;4934713;29;20024;-56
2022/07/21 08:33:04;;;;;;;9.80;3.33;;;;;;;;;;4934364;29;20486;-52
2022/07/21 08:35:33;;;;;;;10.02;3.60;;;;;;;;;;4933142;29;20047;-53
2022/07/21 08:38:01;;;;;;;7.00;3.17;;;;;;;;;;4934934;29;20063;-52
2022/07/21 08:40:29;;;;;;;8.60;3.92;;;;;;;;;;4934436;29;20142;-52
2022/07/21 08:42:56;;;;;;;5.80;3.38;;;;;;;;;;4934897;29;20036;-55
2022/07/21 08:45:24;;;;;;;7.75;3.67;;;;;;;;;;4934414;29;20028;-54
2022/07/21 08:47:54;;;;;;;8.20;3.38;;;;;;;;;;4932328;29;20039;-55
2022/07/21 08:50:26;;;;;;;21.83;3.42;;;;;;;;;;4934352;29;20031;-52
2022/07/21 08:52:52;;;;;;;9.48;3.03;;;;;;;;;;4935045;29;20058;-52
2022/07/21 08:55:20;;;;;;;5.65;3.60;;;;;;;;;;4934694;29;20032;-51
2022/07/21 08:57:47;;;;;;;6.05;3.22;;;;;;;;;;4934783;29;20480;-52
2022/07/21 09:00:14;;;;;;;8.43;3.30;;;;;;;;;;4932384;29;20569;-54
2022/07/21 09:02:41;;;;;;;6.45;3.05;;;;;;;;;;4934348;29;20067;-56
2022/07/21 09:05:09;;;;;;;6.85;2.95;;;;;;;;;;4934896;29;20034;-56
2022/07/21 09:08:02;;;;;;;5.03;3.20;;;;;;;;;;4934210;29;20397;-53
2022/07/21 09:10:30;;;;;;;7.47;2.88;;;;;;;;;;4931802;29;20553;-50
2022/07/21 09:12:58;;;;;;;5.95;2.95;;;;;;;;;;4932513;29;20039;-51
2022/07/21 09:15:27;;;;;;;7.55;3.00;;;;;;;;;;4934938;29;20079;-55
2022/07/21 09:18:07;;;;;;;6.97;2.95;;;;;;;;;;4934837;29;20091;-53
2022/07/21 09:20:34;;;;;;;11.02;3.05;;;;;;;;;;4934524;29;20481;-51
2022/07/21 09:23:09;;;;;;;7.40;2.60;;;;;;;;;;4933500;29;20032;-54
2022/07/21 09:25:41;;;;;;;4.75;2.53;;;;;;;;;;4933216;29;20111;-54
2022/07/21 09:28:13;;;;;;;6.47;3.08;;;;;;;;;;4935023;29;20399;-53
2022/07/21 09:30:52;;;;;;;6.90;2.67;;;;;;;;;;4933266;29;20139;-55
2022/07/21 09:33:31;;;;;;;6.30;2.92;;;;;;;;;;4934214;29;20032;-51
2022/07/21 09:36:08;;;;;;;6.35;2.95;;;;;;;;;;4932195;29;20036;-55
2022/07/21 09:38:39;;;;;;;6.28;2.63;;;;;;;;;;4933709;29;20045;-55
2022/07/21 09:41:07;;;;;;;6.07;2.70;;;;;;;;;;4934671;29;20031;-51
2022/07/21 09:43:43;;;;;;;6.53;2.60;;;;;;;;;;4935984;29;20047;-51
2022/07/21 09:46:12;;;;;;;5.63;2.90;;;;;;;;;;4937373;29;20055;-51
2022/07/21 09:48:39;;;;;;;5.10;2.50;;;;;;;;;;4936327;29;20111;-54
2022/07/21 09:51:25;;;;;;;8.90;2.75;;;;;;;;;;4937744;29;20052;-53
2022/07/21 09:53:55;;;;;;;5.55;2.78;;;;;;;;;;4937618;29;20044;-53
2022/07/21 09:56:22;;;;;;;7.53;2.50;;;;;;;;;;4937798;29;20087;-54
2022/07/21 09:58:51;;;;;;;5.80;2.50;;;;;;;;;;4936105;29;20031;-52
2022/07/21 10:01:18;;;;;;;4.25;2.55;;;;;;;;;;4936759;29;20491;-52
2022/07/21 10:03:46;;;;;;;4.13;2.35;;;;;;;;;;4937351;29;20170;-54
2022/07/21 10:06:13;;;;;;;4.53;2.10;;;;;;;;;;4937820;29;20032;-52
2022/07/21 10:08:40;;;;;;;4.55;2.50;;;;;;;;;;4937921;29;20035;-56
2022/07/21 10:11:08;;;;;;;4.82;2.10;;;;;;;;;;4935620;29;20619;-56
2022/07/21 10:13:36;;;;;;;4.75;2.35;;;;;;;;;;4936446;29;20483;-56
2022/07/21 10:16:03;;;;;;;5.88;2.25;;;;;;;;;;4937805;29;20497;-57
2022/07/21 10:18:36;;;;;;;5.72;2.30;;;;;;;;;;4937036;29;20032;-54
2022/07/21 10:21:09;;;;;;;5.75;2.40;;;;;;;;;;4937466;29;20497;-56
2022/07/21 10:23:38;;;;;;;4.78;2.42;;;;;;;;;;4935122;29;20514;-56
2022/07/21 10:26:06;;;;;;;4.55;2.25;;;;;;;;;;4936894;29;20038;-54
2022/07/21 10:28:34;;;;;;;5.57;2.38;;;;;;;;;;4936745;29;20032;-54
2022/07/21 10:31:12;;;;;;;4.45;2.00;;;;;;;;;;4937503;29;20501;-50
2022/07/21 10:33:45;;;;;;;4.70;2.22;;;;;;;;;;4936912;29;20106;-54
2022/07/21 10:36:35;;;;;;;3.40;1.88;;;;;;;;;;4935026;29;20182;-52
2022/07/21 10:39:17;;;;;;;4.80;2.38;;;;;;;;;;4937236;29;20595;-55
2022/07/21 10:41:45;;;;;;;5.47;2.20;;;;;;;;;;4936068;29;20031;-55
2022/07/21 10:44:32;;;;;;;3.60;1.92;;;;;;;;;;4936848;29;20070;-53
2022/07/21 10:47:06;;;;;;;2.90;1.92;;;;;;;;;;4924604;29;20052;-53
2022/07/21 10:49:53;;;;;;;5.22;2.08;;;;;;;;;;4936965;29;20080;-53
2022/07/21 10:52:39;;;;;;;4.60;2.08;;;;;;;;;;4936338;29;20047;-53
2022/07/21 10:55:12;;;;;;;5.35;1.85;;;;;;;;;;4935811;29;20115;-52
2022/07/21 10:57:39;;;;;;;4.40;1.77;;;;;;;;;;4936559;29;20045;-55
2022/07/21 11:00:23;;;;;;;3.28;1.90;;;;;;;;;;4934175;29;20106;-55
2022/07/21 11:02:58;;;;;;;3.03;1.83;;;;;;;;;;4936966;29;20031;-51
2022/07/21 11:05:27;;;;;;;8.10;2.63;;;;;;;;;;4936448;29;20056;-55
2022/07/21 11:08:11;;;;;;;3.10;1.77;;;;;;;;;;4936302;29;20034;-55
2022/07/21 11:10:39;;;;;;;4.05;1.90;;;;;;;;;;4935049;29;20096;-55
2022/07/21 11:13:06;;;;;;;3.15;1.83;;;;;;;;;;4934816;29;20046;-49
2022/07/21 11:15:51;;;;;;;3.53;1.65;;;;;;;;;;4936326;29;20106;-51
2022/07/21 11:18:19;;;;;;;6.90;2.17;;;;;;;;;;4936486;29;20110;-52
2022/07/21 11:21:01;;;;;;;6.82;1.95;;;;;;;;;;4936508;29;20035;-54
2022/07/21 11:23:38;;;;;;;5.82;1.95;;;;;;;;;;4933393;29;20482;-51
2022/07/21 11:26:05;;;;;;;3.60;2.10;;;;;;;;;;4935573;29;20039;-55
2022/07/21 11:28:32;;;;;;;5.50;1.80;;;;;;;;;;4936285;29;20110;-54
2022/07/21 11:31:13;;;;;;;3.17;1.90;;;;;;;;;;4935792;29;20028;-57
2022/07/21 11:33:42;;;;;;;4.43;2.00;;;;;;;;;;4935317;29;20039;-53
2022/07/21 11:36:09;;;;;;;3.17;1.73;;;;;;;;;;4934220;29;20031;-54
2022/07/21 11:38:36;;;;;;;5.80;1.90;;;;;;;;;;4936174;29;20027;-51
2022/07/21 11:41:18;;;;;;;3.53;2.00;;;;;;;;;;4935242;29;20086;-52
2022/07/21 11:43:46;;;;;;;6.65;1.95;;;;;;;;;;4935881;29;20040;-52
2022/07/21 11:46:13;;;;;;;2.97;1.75;;;;;;;;;;4933833;29;20139;-53
2022/07/21 11:48:40;;;;;;;3.35;1.95;;;;;;;;;;4934807;29;20446;-53
2022/07/21 11:51:07;;;;;;;4.68;1.70;;;;;;;;;;4935305;29;20027;-55
2022/07/21 11:53:34;;;;;;;5.47;2.00;;;;;;;;;;4935315;29;20035;-52
2022/07/21 11:56:01;;;;;;;4.78;1.45;;;;;;;;;;4934907;29;20042;-53
2022/07/21 11:58:28;;;;;;;2.72;1.65;;;;;;;;;;4938482;29;20070;-54
2022/07/21 12:01:08;;;;;;;2.50;1.75;;;;;;;;;;4953051;29;20485;-54
2022/07/21 12:03:35;;;;;;;4.45;1.70;;;;;;;;;;4953458;29;20086;-50
2022/07/21 12:06:02;;;;;;;4.70;1.75;;;;;;;;;;4953408;28;20089;-53
2022/07/21 12:08:30;;;;;;;4.70;1.88;;;;;;;;;;4954592;29;20027;-53
2022/07/21 12:11:12;;;;;;;3.58;1.42;;;;;;;;;;4952249;29;20038;-51
2022/07/21 12:13:58;;;;;;;4.13;1.40;;;;;;;;;;4936698;29;20455;-53
2022/07/21 12:16:26;;;;;;;4.13;1.50;;;;;;;;;;4953809;29;20075;-55
2022/07/21 12:19:12;;;;;;;4.47;1.60;;;;;;;;;;4953716;29;20042;-52
2022/07/21 12:22:04;;;;;;;4.75;1.42;;;;;;;;;;4953138;29;20090;-53
2022/07/21 12:24:51;;;;;;;3.63;1.50;;;;;;;;;;4950558;29;20063;-51
2022/07/21 12:27:18;;;;;;;3.58;1.52;;;;;;;;;;4953771;29;20553;-51
2022/07/21 12:29:45;;;;;;;5.60;1.63;;;;;;;;;;4954308;29;20082;-56
2022/07/21 12:32:13;;;;;;;3.20;1.60;;;;;;;;;;4953348;29;20029;-55
2022/07/21 12:34:54;;;;;;;2.17;1.48;;;;;;;;;;4952072;29;20051;-55
2022/07/21 12:37:21;;;;;;;3.25;1.50;;;;;;;;;;4953372;29;20031;-56
2022/07/21 12:40:04;;;;;;;4.97;1.60;;;;;;;;;;4953824;29;20426;-54
2022/07/21 12:42:38;;;;;;;4.60;1.45;;;;;;;;;;4954032;29;20027;-54
2022/07/21 12:45:22;;;;;;;3.42;1.40;;;;;;;;;;4953259;29;20122;-53
2022/07/21 12:48:21;;;;;;;4.85;1.70;;;;;;;;;;4952275;29;20106;-50
2022/07/21 12:51:00;;;;;;;3.08;1.50;;;;;;;;;;4921215;29;20134;-49
2022/07/21 12:53:27;;;;;;;2.75;1.40;;;;;;;;;;4952918;29;20038;-54
2022/07/21 12:55:53;;;;;;;4.18;1.42;;;;;;;;;;4953314;29;20537;-55
2022/07/21 12:58:20;;;;;;;3.83;1.40;;;;;;;;;;4951592;29;20039;-52
2022/07/21 13:00:47;;;;;;;5.90;1.50;;;;;;;;;;4953059;29;20038;-53
2022/07/21 13:03:14;;;;;;;2.55;1.13;;;;;;;;;;4953159;29;20074;-52
2022/07/21 13:05:41;;;;;;;3.58;1.40;;;;;;;;;;4954034;29;20067;-55
2022/07/21 13:08:08;;;;;;;4.45;1.52;;;;;;;;;;4953075;29;20038;-52
2022/07/21 13:10:35;;;;;;;2.50;1.38;;;;;;;;;;4951821;29;20126;-50
2022/07/21 13:13:02;;;;;;;3.90;1.52;;;;;;;;;;4953393;29;20035;-55
2022/07/21 13:15:29;;;;;;;4.38;1.77;;;;;;;;;;4953108;29;20070;-56
2022/07/21 13:17:56;;;;;;;6.72;1.77;;;;;;;;;;4945135;28;20031;-52
2022/07/21 13:20:23;;;;;;;3.53;1.48;;;;;;;;;;4938086;29;20035;-53
2022/07/21 13:22:50;;;;;;;3.70;1.17;;;;;;;;;;4935590;29;20031;-54
2022/07/21 13:25:17;;;;;;;3.20;1.40;;;;;;;;;;4937978;29;20047;-51
2022/07/21 13:27:44;;;;;;;3.47;1.20;;;;;;;;;;4938434;29;20043;-54
2022/07/21 13:30:11;;;;;;;3.03;1.27;;;;;;;;;;4937739;29;20497;-51
2022/07/21 13:32:38;;;;;;;3.38;1.40;;;;;;;;;;4937842;29;20034;-53
2022/07/21 13:35:06;;;;;;;2.10;1.15;;;;;;;;;;4935429;29;20026;-51
2022/07/21 13:37:33;;;;;;;2.25;1.17;;;;;;;;;;4937716;29;20024;-53
2022/07/21 13:40:00;;;;;;;2.63;1.70;;;;;;;;;;4937923;29;20047;-55
2022/07/21 13:42:27;;;;;;;2.45;1.30;;;;;;;;;;4937407;29;20114;-55
2022/07/21 13:44:54;;;;;;;3.67;1.08;;;;;;;;;;4937881;29;20028;-55
2022/07/21 13:47:21;;;;;;;3.78;1.33;;;;;;;;;;4934989;29;20051;-51
2022/07/21 13:49:48;;;;;;;3.53;1.20;;;;;;;;;;4937805;29;20030;-53
2022/07/21 13:52:15;;;;;;;2.58;1.30;;;;;;;;;;4937741;29;20522;-54
2022/07/21 13:54:42;;;;;;;2.65;1.20;;;;;;;;;;4937207;29;20087;-49
2022/07/21 13:57:09;;;;;;;3.72;1.20;;;;;;;;;;4937029;29;20502;-55
2022/07/21 13:59:36;;;;;;;2.33;1.20;;;;;;;;;;4935158;29;20030;-51
2022/07/21 14:02:03;;;;;;;3.55;1.13;;;;;;;;;;4937695;29;20028;-55
2022/07/21 14:04:30;;;;;;;2.10;1.15;;;;;;;;;;4937019;29;20561;-55
2022/07/21 14:06:57;;;;;;;4.53;1.48;;;;;;;;;;4937629;29;20024;-56
2022/07/21 14:09:24;;;;;;;3.20;1.20;;;;;;;;;;4935605;29;20075;-56
2022/07/21 14:11:52;;;;;;;5.30;1.13;;;;;;;;;;4935830;29;20032;-54
2022/07/21 14:14:22;;;;;;;2.45;1.02;;;;;;;;;;4937192;29;20394;-53
2022/07/21 14:16:50;;;;;;;3.75;1.20;;;;;;;;;;4937489;29;20032;-55
2022/07/21 14:19:17;;;;;;;4.90;1.40;;;;;;;;;;4936529;29;20036;-54
2022/07/21 14:21:44;;;;;;;4.15;1.08;;;;;;;;;;4935462;29;20435;-55
2022/07/21 14:26:56;;;;;;;3.15;0.90;;;;;;;;;;4937251;29;20414;-54
2022/07/21 14:29:23;;;;;;;4.07;1.30;;;;;;;;;;4936413;29;20115;-54
2022/07/21 14:31:50;;;;;;;4.97;1.15;;;;;;;;;;4936810;29;20390;-51
2022/07/21 14:34:17;;;;;;;3.15;1.17;;;;;;;;;;4934392;29;20062;-52
2022/07/21 14:36:46;;;;;;;2.42;1.15;;;;;;;;;;4936715;29;20036;-54
2022/07/21 14:39:14;;;;;;;3.03;1.00;;;;;;;;;;4937173;29;20055;-58
2022/07/21 14:41:41;;;;;;;3.80;1.08;;;;;;;;;;4936345;29;20075;-55
2022/07/21 14:44:08;;;;;;;2.40;1.05;;;;;;;;;;4935825;29;20087;-56
2022/07/21 14:46:35;;;;;;;1.98;1.20;;;;;;;;;;4934595;29;20062;-55
2022/07/21 14:49:02;;;;;;;3.03;0.90;;;;;;;;;;4936942;29;20027;-54
2022/07/21 14:51:29;;;;;;;4.00;1.10;;;;;;;;;;4936026;29;20079;-56